createdAt,value
2023-04-30T00:00:59.776Z,38.67
2023-04-30T00:03:28.440Z,37.00
2023-04-30T00:05:57.555Z,37.67
2023-04-30T00:08:27.135Z,40.00
2023-04-30T00:10:55.865Z,38.00
2023-04-30T00:13:24.539Z,39.00
2023-04-30T00:15:53.320Z,39.00
2023-04-30T00:18:22.073Z,39.00
2023-04-30T00:20:52.378Z,39.00
2023-04-30T00:23:20.991Z,38.67
2023-04-30T00:25:49.654Z,39.33
2023-04-30T00:28:18.235Z,39.00
2023-04-30T00:30:46.896Z,40.00
2023-04-30T00:33:15.762Z,39.00
2023-04-30T00:35:44.614Z,41.00
2023-04-30T00:38:13.418Z,40.00
2023-04-30T00:40:43.347Z,40.00
2023-04-30T00:43:11.984Z,40.00
2023-04-30T00:45:40.614Z,40.00
2023-04-30T00:48:09.364Z,41.00
2023-04-30T00:50:38.796Z,41.33
2023-04-30T00:53:07.603Z,41.33
2023-04-30T00:55:36.581Z,53.33
2023-04-30T00:58:06.339Z,37.00
2023-04-30T01:00:35.756Z,41.33
2023-04-30T01:03:04.763Z,45.33
2023-04-30T01:05:33.496Z,52.67
2023-04-30T01:08:02.254Z,48.00
2023-04-30T01:11:06.724Z,43.25
2023-04-30T01:13:43.322Z,48.33
2023-04-30T01:16:12.107Z,47.33
2023-04-30T01:18:48.973Z,48.00
2023-04-30T01:21:20.641Z,49.00
2023-04-30T01:24:26.582Z,50.00
2023-04-30T01:27:16.404Z,43.50
2023-04-30T01:29:45.060Z,47.33
2023-04-30T01:32:14.069Z,45.00
2023-04-30T01:34:43.327Z,44.33
2023-04-30T01:37:16.560Z,44.67
2023-04-30T01:39:59.550Z,42.67
2023-04-30T01:42:43.844Z,37.00
2023-04-30T01:45:27.442Z,42.33
2023-04-30T01:48:43.467Z,40.33
2023-04-30T01:51:40.177Z,38.00
2023-04-30T01:54:29.421Z,38.67
2023-04-30T01:57:13.866Z,41.33
2023-04-30T01:59:43.871Z,43.00
2023-04-30T02:04:41.658Z,39.00
2023-04-30T02:07:09.581Z,38.00
2023-04-30T02:09:38.451Z,38.00
2023-04-30T02:12:07.799Z,39.00
2023-04-30T02:14:36.493Z,41.33
2023-04-30T02:17:06.482Z,38.33
2023-04-30T02:19:35.148Z,39.00
2023-04-30T02:22:03.875Z,39.67
2023-04-30T02:24:32.447Z,37.00
2023-04-30T02:27:01.280Z,41.00
2023-04-30T02:29:29.359Z,40.00
2023-04-30T02:31:59.614Z,41.33
2023-04-30T02:34:28.297Z,40.67
2023-04-30T02:36:57.055Z,40.33
2023-04-30T02:39:25.705Z,42.33
2023-04-30T02:41:54.583Z,39.00
2023-04-30T02:44:23.168Z,39.67
2023-04-30T02:46:51.882Z,38.00
2023-04-30T02:49:20.512Z,38.00
2023-04-30T02:51:49.161Z,34.33
2023-04-30T02:54:17.860Z,37.00
2023-04-30T02:56:47.229Z,37.00
2023-04-30T02:59:15.797Z,36.00
2023-04-30T03:01:43.697Z,36.50
2023-04-30T03:04:11.727Z,35.50
2023-04-30T03:06:39.802Z,35.00
2023-04-30T03:09:08.357Z,34.50
2023-04-30T03:11:37.926Z,33.67
2023-04-30T03:14:05.874Z,34.00
2023-04-30T03:16:33.683Z,34.00
2023-04-30T03:19:02.287Z,33.00
2023-04-30T03:21:31.185Z,33.33
2023-04-30T03:23:59.894Z,33.00
2023-04-30T03:26:28.583Z,32.33
2023-04-30T03:28:57.268Z,30.33
2023-04-30T03:31:25.966Z,33.67
2023-04-30T03:33:54.893Z,33.00
2023-04-30T03:36:23.625Z,30.33
2023-04-30T03:38:52.239Z,30.00
2023-04-30T03:41:21.259Z,30.33
2023-04-30T03:43:50.113Z,28.67
2023-04-30T03:46:19.152Z,28.67
2023-04-30T03:48:47.751Z,30.00
2023-04-30T03:51:16.978Z,31.33
2023-04-30T03:53:44.766Z,30.00
2023-04-30T03:56:12.989Z,30.00
2023-04-30T03:58:41.752Z,29.67
2023-04-30T04:01:10.352Z,30.00
2023-04-30T04:03:39.186Z,28.67
2023-04-30T04:06:07.808Z,29.00
2023-04-30T04:08:36.844Z,30.00
2023-04-30T04:11:05.479Z,28.00
2023-04-30T04:13:34.254Z,29.67
2023-04-30T04:16:02.923Z,28.67
2023-04-30T04:18:31.569Z,29.00
2023-04-30T04:21:01.648Z,27.33
2023-04-30T04:23:30.481Z,28.00
2023-04-30T04:26:00.397Z,29.00
2023-04-30T04:28:29.055Z,28.00
2023-04-30T04:30:56.892Z,26.00
2023-04-30T04:33:24.755Z,26.00
2023-04-30T04:35:53.371Z,26.00
2023-04-30T04:38:21.567Z,26.50
2023-04-30T04:40:54.471Z,27.67
2023-04-30T04:43:23.098Z,25.33
2023-04-30T04:45:52.349Z,26.67
2023-04-30T04:48:21.208Z,25.00
2023-04-30T04:50:49.074Z,25.00
2023-04-30T04:53:17.814Z,26.33
2023-04-30T04:55:46.411Z,25.67
2023-04-30T04:58:15.002Z,26.00
2023-04-30T05:00:42.835Z,28.00
2023-04-30T05:03:11.667Z,28.00
2023-04-30T05:05:40.410Z,28.00
2023-04-30T05:08:09.003Z,28.00
2023-04-30T05:10:37.858Z,27.67
2023-04-30T05:13:05.651Z,26.50
2023-04-30T05:15:33.465Z,25.00
2023-04-30T05:20:43.401Z,25.00
2023-04-30T05:23:11.612Z,25.00
2023-04-30T05:25:39.533Z,25.00
2023-04-30T05:28:08.660Z,24.33
2023-04-30T05:30:37.189Z,22.50
2023-04-30T05:33:06.182Z,25.00
2023-04-30T05:35:36.377Z,27.50
2023-04-30T05:38:04.346Z,25.00
2023-04-30T05:40:32.524Z,25.50
2023-04-30T05:43:01.109Z,27.67
2023-04-30T05:45:30.024Z,25.00
2023-04-30T05:47:58.640Z,24.00
2023-04-30T05:50:27.299Z,25.00
2023-04-30T05:52:56.039Z,28.00
2023-04-30T05:55:24.703Z,23.33
2023-04-30T05:57:52.794Z,24.50
2023-04-30T06:00:21.598Z,27.67
2023-04-30T06:02:49.701Z,21.00
2023-04-30T06:05:18.335Z,24.00
2023-04-30T06:07:47.002Z,22.00
2023-04-30T06:10:15.891Z,21.33
2023-04-30T06:12:44.527Z,21.33
2023-04-30T06:15:13.253Z,24.67
2023-04-30T06:17:40.100Z,21.00
2023-04-30T06:20:09.318Z,22.00
2023-04-30T06:22:37.448Z,22.00
2023-04-30T06:25:06.668Z,21.33
2023-04-30T06:27:35.303Z,22.00
2023-04-30T06:30:03.452Z,20.50
2023-04-30T06:32:31.499Z,22.00
2023-04-30T06:34:59.078Z,21.00
2023-04-30T06:37:32.457Z,19.67
2023-04-30T06:40:02.382Z,20.33
2023-04-30T06:42:34.678Z,22.67
2023-04-30T06:45:03.406Z,19.50
2023-04-30T06:47:36.377Z,18.67
2023-04-30T06:50:05.699Z,22.67
2023-04-30T06:52:33.564Z,20.00
2023-04-30T06:55:01.532Z,19.50
2023-04-30T06:57:29.357Z,16.50
2023-04-30T06:59:56.905Z,19.50
2023-04-30T07:02:24.274Z,20.00
2023-04-30T07:04:51.234Z,16.50
2023-04-30T07:07:18.858Z,20.00
2023-04-30T07:09:45.670Z,17.50
2023-04-30T07:12:13.967Z,19.00
2023-04-30T07:14:41.540Z,18.33
2023-04-30T07:17:10.096Z,17.00
2023-04-30T07:19:37.857Z,15.67
2023-04-30T07:22:05.682Z,15.33
2023-04-30T07:24:34.760Z,18.50
2023-04-30T07:27:04.120Z,14.67
2023-04-30T07:29:32.029Z,17.00
2023-04-30T07:31:58.994Z,17.00
2023-04-30T07:34:28.016Z,16.00
2023-04-30T07:36:55.844Z,20.00
2023-04-30T07:39:23.727Z,17.00
2023-04-30T07:41:51.470Z,16.00
2023-04-30T07:44:19.223Z,19.00
2023-04-30T07:46:47.861Z,19.00
2023-04-30T07:49:15.905Z,21.00
2023-04-30T07:51:43.832Z,21.00
2023-04-30T07:54:12.613Z,22.67
2023-04-30T07:56:42.186Z,22.67
2023-04-30T07:59:09.959Z,22.00
2023-04-30T08:01:38.732Z,22.00
2023-04-30T08:04:07.673Z,22.00
2023-04-30T08:06:36.510Z,20.00
2023-04-30T08:09:05.326Z,21.00
2023-04-30T08:11:33.888Z,19.00
2023-04-30T08:16:49.569Z,16.33
2023-04-30T08:19:16.939Z,16.00
2023-04-30T08:21:44.834Z,18.67
2023-04-30T08:24:12.597Z,16.50
2023-04-30T08:26:41.247Z,23.00
2023-04-30T08:29:08.981Z,18.33
2023-04-30T08:31:37.035Z,19.00
2023-04-30T08:34:05.831Z,17.67
2023-04-30T08:36:33.870Z,17.00
2023-04-30T08:39:02.222Z,17.50
2023-04-30T08:41:36.115Z,18.00
2023-04-30T08:44:05.693Z,19.00
2023-04-30T08:46:37.918Z,19.00
2023-04-30T08:49:05.858Z,18.33
2023-04-30T08:51:35.426Z,20.00
2023-04-30T08:54:03.181Z,15.33
2023-04-30T08:56:33.641Z,16.67
2023-04-30T08:59:01.973Z,15.50
2023-04-30T09:01:31.107Z,17.33
2023-04-30T09:03:58.390Z,44.50
2023-04-30T09:06:27.491Z,34.00
2023-04-30T09:08:56.052Z,29.33
2023-04-30T09:11:29.235Z,29.67
2023-04-30T09:14:00.706Z,20.33
2023-04-30T09:16:46.919Z,14.67
2023-04-30T09:19:27.236Z,16.33
2023-04-30T09:21:55.328Z,13.00
2023-04-30T09:24:25.122Z,16.67
2023-04-30T09:26:54.057Z,16.33
2023-04-30T09:29:22.705Z,20.00
2023-04-30T09:31:51.274Z,17.00
2023-04-30T09:34:18.145Z,15.00
2023-04-30T09:36:54.875Z,16.50
2023-04-30T09:39:23.248Z,14.50
2023-04-30T09:41:52.353Z,15.00
2023-04-30T09:44:32.226Z,16.33
2023-04-30T09:46:59.520Z,16.00
2023-04-30T09:49:27.815Z,15.00
2023-04-30T09:51:57.307Z,18.00
2023-04-30T09:54:30.803Z,17.67
2023-04-30T09:57:01.929Z,18.67
2023-04-30T09:59:33.107Z,19.00
2023-04-30T10:02:03.490Z,16.00
2023-04-30T10:04:37.163Z,18.67
2023-04-30T10:07:22.094Z,15.67
2023-04-30T10:10:03.481Z,14.00
2023-04-30T10:12:48.767Z,13.00
2023-04-30T10:15:21.292Z,15.00
2023-04-30T10:18:05.503Z,17.00
2023-04-30T10:20:38.902Z,14.00
2023-04-30T10:23:07.492Z,14.00
2023-04-30T10:25:35.998Z,14.00
2023-04-30T10:28:04.792Z,10.00
2023-04-30T10:30:32.903Z,12.00
2023-04-30T10:33:29.264Z,14.50
2023-04-30T10:36:00.158Z,12.67
2023-04-30T10:38:32.553Z,12.50
2023-04-30T10:41:01.610Z,11.33
2023-04-30T10:43:31.659Z,12.00
2023-04-30T10:45:59.081Z,10.00
2023-04-30T10:48:27.414Z,10.50
2023-04-30T10:50:59.769Z,11.33
2023-04-30T10:53:30.456Z,11.00
2023-04-30T10:56:09.684Z,11.33
2023-04-30T10:58:41.422Z,8.67
2023-04-30T11:01:17.872Z,13.00
2023-04-30T11:04:06.851Z,7.20
2023-04-30T11:06:50.570Z,9.00
2023-04-30T11:09:18.584Z,7.00
2023-04-30T11:11:50.695Z,10.00
2023-04-30T11:14:21.280Z,7.50
2023-04-30T11:16:51.352Z,7.80
2023-04-30T11:19:23.225Z,9.00
2023-04-30T11:22:06.126Z,7.00
2023-04-30T11:25:05.892Z,10.00
2023-04-30T11:27:37.528Z,8.00
2023-04-30T11:30:18.815Z,7.29
2023-04-30T11:32:47.971Z,6.00
2023-04-30T11:35:22.835Z,7.00
2023-04-30T11:37:50.125Z,4.50
2023-04-30T11:40:20.229Z,7.20
2023-04-30T11:42:48.458Z,8.00
2023-04-30T11:45:18.157Z,7.80
2023-04-30T11:47:48.791Z,6.50
2023-04-30T11:50:19.616Z,7.00
2023-04-30T11:52:52.762Z,5.33
2023-04-30T11:55:22.893Z,6.00
2023-04-30T11:57:56.282Z,5.67
2023-04-30T12:00:32.158Z,3.20
2023-04-30T12:03:04.021Z,6.20
2023-04-30T12:05:32.910Z,7.00
2023-04-30T12:08:08.268Z,5.00
2023-04-30T12:10:37.103Z,6.20
2023-04-30T12:13:07.664Z,6.57
2023-04-30T12:15:35.258Z,8.00
2023-04-30T12:18:13.756Z,8.80
2023-04-30T12:20:43.164Z,6.80
2023-04-30T12:23:11.178Z,9.00
2023-04-30T12:25:45.874Z,7.67
2023-04-30T12:28:14.177Z,8.00
2023-04-30T12:30:43.571Z,8.33
2023-04-30T12:33:11.913Z,9.67
2023-04-30T12:35:43.654Z,10.00
2023-04-30T12:38:11.735Z,9.00
2023-04-30T12:40:41.345Z,7.00
2023-04-30T12:43:10.085Z,7.40
2023-04-30T12:46:08.060Z,6.40
2023-04-30T12:48:46.219Z,7.40
2023-04-30T12:51:20.260Z,7.86
2023-04-30T12:53:49.126Z,7.00
2023-04-30T12:56:19.937Z,2.40
2023-04-30T12:58:50.836Z,7.20
2023-04-30T13:01:23.247Z,7.67
2023-04-30T13:03:53.951Z,9.00
2023-04-30T13:06:23.723Z,8.00
2023-04-30T13:08:58.702Z,8.00
2023-04-30T13:11:27.502Z,7.00
2023-04-30T13:13:56.846Z,7.60
2023-04-30T13:16:25.705Z,10.00
2023-04-30T13:18:53.949Z,8.00
2023-04-30T13:21:25.142Z,9.20
2023-04-30T13:23:55.218Z,7.20
2023-04-30T13:26:26.472Z,8.80
2023-04-30T13:28:54.296Z,8.00
2023-04-30T13:31:22.448Z,5.00
2023-04-30T13:33:51.013Z,6.67
2023-04-30T13:36:19.779Z,7.60
2023-04-30T13:38:50.061Z,6.43
2023-04-30T13:41:17.797Z,6.00
2023-04-30T13:43:46.605Z,3.00
2023-04-30T13:46:15.733Z,6.00
2023-04-30T13:48:43.398Z,6.33
2023-04-30T13:51:14.762Z,5.60
2023-04-30T13:53:43.494Z,5.00
2023-04-30T13:56:12.850Z,5.40
2023-04-30T13:58:41.527Z,6.20
2023-04-30T14:01:10.767Z,6.00
2023-04-30T14:03:39.501Z,6.40
2023-04-30T14:06:07.219Z,7.33
2023-04-30T14:08:37.616Z,7.29
2023-04-30T14:11:05.103Z,6.00
2023-04-30T14:13:33.068Z,7.00
2023-04-30T14:16:00.730Z,6.00
2023-04-30T14:18:31.363Z,5.29
2023-04-30T14:20:59.079Z,6.00
2023-04-30T14:23:29.178Z,5.40
2023-04-30T14:25:57.080Z,7.33
2023-04-30T14:28:24.635Z,6.33
2023-04-30T14:30:53.353Z,8.00
2023-04-30T14:33:20.816Z,5.00
2023-04-30T14:35:50.230Z,5.80
2023-04-30T14:38:17.861Z,9.00
2023-04-30T14:40:46.522Z,8.00
2023-04-30T14:43:15.122Z,22.67
2023-04-30T14:45:44.218Z,13.67
2023-04-30T14:48:12.610Z,9.00
2023-04-30T14:50:40.462Z,7.00
2023-04-30T14:53:09.558Z,8.67
2023-04-30T14:55:41.694Z,7.20
2023-04-30T14:58:09.275Z,6.00
2023-04-30T15:00:37.977Z,6.00
2023-04-30T15:03:05.902Z,8.67
2023-04-30T15:05:34.766Z,7.00
2023-04-30T15:08:03.475Z,5.60
2023-04-30T15:10:32.423Z,5.60
2023-04-30T15:13:03.654Z,5.00
2023-04-30T15:15:31.250Z,4.00
2023-04-30T15:18:01.670Z,5.20
2023-04-30T15:20:30.402Z,5.20
2023-04-30T15:22:58.140Z,5.67
2023-04-30T15:25:28.557Z,5.43
2023-04-30T15:27:57.173Z,6.00
2023-04-30T15:30:24.691Z,6.00
2023-04-30T15:32:53.512Z,5.00
2023-04-30T15:35:21.104Z,6.00
2023-04-30T15:37:48.711Z,6.00
2023-04-30T15:40:16.256Z,7.00
2023-04-30T15:42:43.808Z,7.00
2023-04-30T15:45:11.417Z,7.00
2023-04-30T15:47:40.094Z,7.80
2023-04-30T15:50:09.387Z,6.80
2023-04-30T15:52:39.442Z,6.80
2023-04-30T15:55:08.842Z,5.67
2023-04-30T15:57:37.835Z,6.00
2023-04-30T16:00:07.201Z,6.00
2023-04-30T16:02:35.912Z,6.00
2023-04-30T16:05:04.125Z,7.00
2023-04-30T16:07:33.096Z,7.40
2023-04-30T16:10:02.743Z,5.80
2023-04-30T16:12:31.659Z,7.40
2023-04-30T16:15:00.514Z,5.80
2023-04-30T16:17:28.096Z,4.00
2023-04-30T16:19:55.906Z,6.67
2023-04-30T16:22:25.001Z,7.00
2023-04-30T16:24:54.405Z,7.80
2023-04-30T16:27:23.089Z,7.00
2023-04-30T16:29:50.675Z,7.67
2023-04-30T16:32:19.261Z,6.20
2023-04-30T16:34:46.886Z,6.00
2023-04-30T16:37:15.814Z,5.40
2023-04-30T16:39:44.616Z,7.00
2023-04-30T16:42:12.387Z,6.33
2023-04-30T16:44:41.070Z,6.20
2023-04-30T16:47:09.901Z,6.20
2023-04-30T16:49:38.483Z,5.00
2023-04-30T16:52:06.009Z,7.00
2023-04-30T16:54:34.735Z,7.00
2023-04-30T16:57:04.818Z,7.00
2023-04-30T16:59:33.702Z,6.20
2023-04-30T17:02:02.198Z,8.00
2023-04-30T17:04:29.911Z,7.00
2023-04-30T17:06:57.853Z,7.00
2023-04-30T17:09:25.933Z,6.00
2023-04-30T17:11:53.354Z,5.67
2023-04-30T17:14:22.808Z,7.20
2023-04-30T17:16:51.434Z,7.20
2023-04-30T17:19:20.075Z,8.00
2023-04-30T17:21:47.755Z,9.33
2023-04-30T17:24:15.330Z,7.00
2023-04-30T17:26:44.160Z,8.00
2023-04-30T17:29:11.893Z,9.00
2023-04-30T17:31:43.399Z,7.43
2023-04-30T17:34:11.708Z,10.33
2023-04-30T17:36:42.477Z,9.00
2023-04-30T17:39:10.681Z,8.00
2023-04-30T17:41:57.150Z,10.00
2023-04-30T17:44:26.176Z,9.00
2023-04-30T17:46:54.106Z,9.00
2023-04-30T17:49:23.601Z,9.67
2023-04-30T17:51:51.447Z,9.00
2023-04-30T17:54:19.114Z,8.00
2023-04-30T17:56:46.043Z,10.00
2023-04-30T17:59:12.936Z,8.00
2023-04-30T18:01:40.769Z,8.00
2023-04-30T18:04:09.155Z,11.00
2023-04-30T18:06:37.178Z,10.00
2023-04-30T18:09:04.409Z,11.00
2023-04-30T18:11:32.179Z,12.00
2023-04-30T18:13:58.948Z,13.00
2023-04-30T18:16:26.956Z,11.00
2023-04-30T18:18:54.657Z,13.33
2023-04-30T18:21:23.558Z,18.00
2023-04-30T18:23:51.466Z,20.33
2023-04-30T18:26:24.788Z,21.00
2023-04-30T18:28:53.522Z,21.00
2023-04-30T18:31:22.290Z,21.67
2023-04-30T18:33:52.630Z,21.33
2023-04-30T18:36:21.222Z,20.67
2023-04-30T18:38:50.374Z,19.00
2023-04-30T18:41:21.425Z,23.33
2023-04-30T18:43:49.436Z,17.00
2023-04-30T18:46:22.013Z,16.00
2023-04-30T18:48:51.165Z,19.33
2023-04-30T18:51:19.859Z,23.00
2023-04-30T18:53:47.976Z,14.00
2023-04-30T18:56:15.941Z,15.00
2023-04-30T18:58:46.944Z,15.00
2023-04-30T19:01:15.203Z,14.00
2023-04-30T19:03:44.702Z,16.00
2023-04-30T19:06:14.384Z,16.00
2023-04-30T19:08:43.660Z,14.00
2023-04-30T19:11:12.731Z,14.50
2023-04-30T19:13:40.798Z,15.00
2023-04-30T19:16:07.677Z,12.00
2023-04-30T19:18:38.785Z,11.33
2023-04-30T19:21:09.232Z,11.40
2023-04-30T19:23:36.162Z,11.00
2023-04-30T19:26:04.863Z,9.20
2023-04-30T19:28:32.711Z,10.00
2023-04-30T19:31:00.634Z,10.33
2023-04-30T19:33:28.838Z,11.00
2023-04-30T19:35:58.066Z,10.00
2023-04-30T19:38:25.815Z,10.67
2023-04-30T19:40:54.739Z,10.40
2023-04-30T19:43:23.044Z,7.00
2023-04-30T19:45:57.270Z,11.83
2023-04-30T19:48:25.854Z,11.00
2023-04-30T19:50:53.871Z,12.50
2023-04-30T19:53:22.588Z,8.67
2023-04-30T19:55:52.456Z,11.00
2023-04-30T19:58:20.491Z,10.33
2023-04-30T20:00:48.145Z,7.00
2023-04-30T20:03:16.850Z,6.00
2023-04-30T20:05:46.507Z,10.67
2023-04-30T20:08:14.316Z,9.67
2023-04-30T20:10:43.051Z,9.33
2023-04-30T20:13:10.024Z,9.50
2023-04-30T20:15:39.485Z,10.00
2023-04-30T20:18:08.087Z,8.50
2023-04-30T20:20:36.526Z,9.67
2023-04-30T20:23:15.856Z,7.60
2023-04-30T20:25:46.762Z,8.60
2023-04-30T20:28:16.657Z,9.80
2023-04-30T20:30:43.917Z,8.50
2023-04-30T20:33:11.844Z,9.00
2023-04-30T20:35:45.737Z,9.20
2023-04-30T20:38:13.278Z,7.50
2023-04-30T20:40:42.667Z,6.00
2023-04-30T20:43:11.226Z,7.00
2023-04-30T20:45:38.653Z,8.50
2023-04-30T20:48:06.820Z,9.00
2023-04-30T20:50:33.748Z,8.00
2023-04-30T20:53:00.631Z,6.00
2023-04-30T20:55:30.204Z,10.67
2023-04-30T20:58:00.201Z,7.00
2023-04-30T21:00:27.835Z,4.00
2023-04-30T21:02:54.721Z,8.00
2023-04-30T21:05:21.633Z,7.00
2023-04-30T21:07:48.537Z,5.50
2023-04-30T21:10:15.436Z,7.00
2023-04-30T21:12:42.265Z,5.00
2023-04-30T21:15:10.425Z,8.00
2023-04-30T21:17:37.401Z,8.00
2023-04-30T21:20:05.723Z,5.50
2023-04-30T21:22:33.170Z,8.00
2023-04-30T21:25:00.217Z,6.00
2023-04-30T21:27:28.077Z,7.00
2023-04-30T21:29:55.433Z,6.00
2023-04-30T21:32:23.567Z,5.50
2023-04-30T21:34:50.476Z,10.00
2023-04-30T21:37:19.225Z,7.60
2023-04-30T21:39:46.019Z,7.00
2023-04-30T21:42:12.757Z,8.50
2023-04-30T21:44:40.110Z,8.00
2023-04-30T21:47:08.783Z,7.00
2023-04-30T21:49:35.862Z,8.00
2023-04-30T21:52:04.661Z,6.50
2023-04-30T21:54:33.275Z,7.00
2023-04-30T21:57:02.895Z,9.40
2023-04-30T21:59:29.758Z,9.00
2023-04-30T22:02:03.124Z,7.86
2023-04-30T22:04:35.115Z,7.00
2023-04-30T22:07:03.075Z,6.50
2023-04-30T22:09:29.802Z,7.00
2023-04-30T22:11:56.691Z,7.00
2023-04-30T22:14:23.647Z,7.00
2023-04-30T22:16:51.269Z,6.00
2023-04-30T22:19:18.377Z,7.00
2023-04-30T22:21:45.166Z,7.50
2023-04-30T22:24:11.936Z,7.00
2023-04-30T22:26:38.829Z,7.00
2023-04-30T22:29:05.625Z,7.50
2023-04-30T22:31:32.665Z,7.00
2023-04-30T22:34:00.094Z,8.00
2023-04-30T22:36:27.281Z,7.00
2023-04-30T22:38:54.133Z,7.50
2023-04-30T22:41:22.415Z,6.50
2023-04-30T22:43:51.607Z,9.00
2023-04-30T22:46:18.428Z,8.00
2023-04-30T22:48:45.406Z,8.50
2023-04-30T22:51:12.347Z,8.50
2023-04-30T22:53:41.194Z,7.60
2023-04-30T22:56:08.241Z,8.00
2023-04-30T22:58:34.965Z,7.00
2023-04-30T23:01:02.206Z,8.00
2023-04-30T23:03:31.510Z,10.80
2023-04-30T23:05:59.690Z,8.00
2023-04-30T23:08:26.648Z,8.50
2023-04-30T23:10:55.757Z,8.00
2023-04-30T23:13:22.987Z,12.00
2023-04-30T23:15:49.835Z,8.00
2023-04-30T23:18:19.115Z,9.00
2023-04-30T23:20:48.033Z,8.00
2023-04-30T23:23:15.631Z,11.00
2023-04-30T23:25:42.520Z,6.50
2023-04-30T23:28:09.584Z,7.50
2023-04-30T23:30:39.365Z,8.80
2023-04-30T23:33:08.398Z,8.60
2023-04-30T23:35:35.253Z,9.00
2023-04-30T23:38:04.085Z,10.80
2023-04-30T23:40:31.068Z,10.00
2023-04-30T23:42:57.871Z,8.00
2023-04-30T23:45:25.550Z,9.00
2023-04-30T23:47:52.456Z,6.00
2023-04-30T23:50:19.394Z,9.00
2023-04-30T23:52:46.366Z,11.00
2023-04-30T23:55:16.694Z,9.80
2023-04-30T23:57:43.563Z,11.00
